sensor_id;sensor_type;location;lat;lon;timestamp;P1;durP1;ratioP1;P2;durP2;ratioP2
73919;SDS011;62266;53.348;-1.496;2023-06-04T00:01:34;10.10;;;3.83;;
73919;SDS011;62266;53.348;-1.496;2023-06-04T00:04:19;6.55;;;3.40;;
73919;SDS011;62266;53.348;-1.496;2023-06-04T00:07:03;9.48;;;3.40;;
73919;SDS011;62266;53.348;-1.496;2023-06-04T00:09:47;5.40;;;3.30;;
73919;SDS011;62266;53.348;-1.496;2023-06-04T00:12:31;7.32;;;3.15;;
73919;SDS011;62266;53.348;-1.496;2023-06-04T00:15:16;10.07;;;3.43;;
73919;SDS011;62266;53.348;-1.496;2023-06-04T00:18:00;5.47;;;3.10;;
73919;SDS011;62266;53.348;-1.496;2023-06-04T00:20:44;4.63;;;3.13;;
73919;SDS011;62266;53.348;-1.496;2023-06-04T00:23:28;9.48;;;4.22;;
73919;SDS011;62266;53.348;-1.496;2023-06-04T00:26:12;5.72;;;3.22;;
73919;SDS011;62266;53.348;-1.496;2023-06-04T00:28:56;6.53;;;3.30;;
73919;SDS011;62266;53.348;-1.496;2023-06-04T00:31:40;5.55;;;3.42;;
73919;SDS011;62266;53.348;-1.496;2023-06-04T00:34:24;9.52;;;3.25;;
73919;SDS011;62266;53.348;-1.496;2023-06-04T00:37:09;7.32;;;3.40;;
73919;SDS011;62266;53.348;-1.496;2023-06-04T00:39:53;10.52;;;3.50;;
73919;SDS011;62266;53.348;-1.496;2023-06-04T00:42:37;5.97;;;3.27;;
73919;SDS011;62266;53.348;-1.496;2023-06-04T00:45:22;6.70;;;3.17;;
73919;SDS011;62266;53.348;-1.496;2023-06-04T00:48:09;10.50;;;3.95;;
73919;SDS011;62266;53.348;-1.496;2023-06-04T00:50:54;4.68;;;3.25;;
73919;SDS011;62266;53.348;-1.496;2023-06-04T00:53:38;6.65;;;4.00;;
73919;SDS011;62266;53.348;-1.496;2023-06-04T00:56:23;4.23;;;3.17;;
73919;SDS011;62266;53.348;-1.496;2023-06-04T00:59:08;6.82;;;4.05;;
73919;SDS011;62266;53.348;-1.496;2023-06-04T01:02:03;7.03;;;3.65;;
73919;SDS011;62266;53.348;-1.496;2023-06-04T01:07:47;7.72;;;3.45;;
73919;SDS011;62266;53.348;-1.496;2023-06-04T01:10:31;7.30;;;3.47;;
73919;SDS011;62266;53.348;-1.496;2023-06-04T01:13:15;10.73;;;3.95;;
73919;SDS011;62266;53.348;-1.496;2023-06-04T01:16:00;8.30;;;3.58;;
73919;SDS011;62266;53.348;-1.496;2023-06-04T01:18:45;8.32;;;3.95;;
73919;SDS011;62266;53.348;-1.496;2023-06-04T01:21:30;10.93;;;3.95;;
73919;SDS011;62266;53.348;-1.496;2023-06-04T01:24:15;9.97;;;4.07;;
73919;SDS011;62266;53.348;-1.496;2023-06-04T01:27:00;7.47;;;3.63;;
73919;SDS011;62266;53.348;-1.496;2023-06-04T01:29:44;8.07;;;3.97;;
73919;SDS011;62266;53.348;-1.496;2023-06-04T01:32:29;6.18;;;3.60;;
73919;SDS011;62266;53.348;-1.496;2023-06-04T01:35:13;7.68;;;3.70;;
73919;SDS011;62266;53.348;-1.496;2023-06-04T01:37:57;8.13;;;3.70;;
73919;SDS011;62266;53.348;-1.496;2023-06-04T01:40:41;6.30;;;4.10;;
73919;SDS011;62266;53.348;-1.496;2023-06-04T01:43:25;8.55;;;3.72;;
73919;SDS011;62266;53.348;-1.496;2023-06-04T01:46:10;8.32;;;3.63;;
73919;SDS011;62266;53.348;-1.496;2023-06-04T01:48:54;9.07;;;3.97;;
73919;SDS011;62266;53.348;-1.496;2023-06-04T01:51:38;8.43;;;3.67;;
73919;SDS011;62266;53.348;-1.496;2023-06-04T01:54:23;8.77;;;4.00;;
73919;SDS011;62266;53.348;-1.496;2023-06-04T01:57:07;9.02;;;3.40;;
73919;SDS011;62266;53.348;-1.496;2023-06-04T01:59:51;6.65;;;3.40;;
73919;SDS011;62266;53.348;-1.496;2023-06-04T02:02:36;5.57;;;3.42;;
73919;SDS011;62266;53.348;-1.496;2023-06-04T02:05:20;9.77;;;3.10;;
73919;SDS011;62266;53.348;-1.496;2023-06-04T02:08:04;6.97;;;3.60;;
73919;SDS011;62266;53.348;-1.496;2023-06-04T02:10:49;7.20;;;3.30;;
73919;SDS011;62266;53.348;-1.496;2023-06-04T02:13:33;6.30;;;3.45;;
73919;SDS011;62266;53.348;-1.496;2023-06-04T02:16:18;9.27;;;3.30;;
73919;SDS011;62266;53.348;-1.496;2023-06-04T02:19:02;6.82;;;3.70;;
73919;SDS011;62266;53.348;-1.496;2023-06-04T02:21:46;7.97;;;3.53;;
73919;SDS011;62266;53.348;-1.496;2023-06-04T02:24:30;7.57;;;3.83;;
73919;SDS011;62266;53.348;-1.496;2023-06-04T02:27:15;5.60;;;3.45;;
73919;SDS011;62266;53.348;-1.496;2023-06-04T02:29:59;8.60;;;4.43;;
73919;SDS011;62266;53.348;-1.496;2023-06-04T02:32:43;8.20;;;3.75;;
73919;SDS011;62266;53.348;-1.496;2023-06-04T02:35:28;9.57;;;3.73;;
73919;SDS011;62266;53.348;-1.496;2023-06-04T02:38:12;6.95;;;3.67;;
73919;SDS011;62266;53.348;-1.496;2023-06-04T02:40:56;7.78;;;3.88;;
73919;SDS011;62266;53.348;-1.496;2023-06-04T02:43:40;5.53;;;3.38;;
73919;SDS011;62266;53.348;-1.496;2023-06-04T02:46:24;9.48;;;3.35;;
73919;SDS011;62266;53.348;-1.496;2023-06-04T02:49:10;11.27;;;4.00;;
73919;SDS011;62266;53.348;-1.496;2023-06-04T02:51:57;6.63;;;3.60;;
73919;SDS011;62266;53.348;-1.496;2023-06-04T02:54:41;6.22;;;3.50;;
73919;SDS011;62266;53.348;-1.496;2023-06-04T02:57:26;11.27;;;4.40;;
73919;SDS011;62266;53.348;-1.496;2023-06-04T03:00:13;14.15;;;3.75;;
73919;SDS011;62266;53.348;-1.496;2023-06-04T03:02:58;7.37;;;3.43;;
73919;SDS011;62266;53.348;-1.496;2023-06-04T03:05:45;5.80;;;3.47;;
73919;SDS011;62266;53.348;-1.496;2023-06-04T03:08:30;9.25;;;3.78;;
73919;SDS011;62266;53.348;-1.496;2023-06-04T03:11:14;5.13;;;3.17;;
73919;SDS011;62266;53.348;-1.496;2023-06-04T03:14:05;5.20;;;3.42;;
73919;SDS011;62266;53.348;-1.496;2023-06-04T03:16:49;6.17;;;3.23;;
73919;SDS011;62266;53.348;-1.496;2023-06-04T03:19:37;6.47;;;3.65;;
73919;SDS011;62266;53.348;-1.496;2023-06-04T03:22:21;9.02;;;4.13;;
73919;SDS011;62266;53.348;-1.496;2023-06-04T03:25:05;10.80;;;3.45;;
73919;SDS011;62266;53.348;-1.496;2023-06-04T03:27:50;7.95;;;3.92;;
73919;SDS011;62266;53.348;-1.496;2023-06-04T03:30:34;5.97;;;3.30;;
73919;SDS011;62266;53.348;-1.496;2023-06-04T03:33:19;10.90;;;3.40;;
73919;SDS011;62266;53.348;-1.496;2023-06-04T03:36:02;8.52;;;3.55;;
73919;SDS011;62266;53.348;-1.496;2023-06-04T03:38:47;6.05;;;3.47;;
73919;SDS011;62266;53.348;-1.496;2023-06-04T03:41:31;5.95;;;3.53;;
73919;SDS011;62266;53.348;-1.496;2023-06-04T03:44:17;5.37;;;3.70;;
73919;SDS011;62266;53.348;-1.496;2023-06-04T03:47:02;8.30;;;3.60;;
73919;SDS011;62266;53.348;-1.496;2023-06-04T03:49:46;8.57;;;4.05;;
73919;SDS011;62266;53.348;-1.496;2023-06-04T03:52:30;10.00;;;3.92;;
73919;SDS011;62266;53.348;-1.496;2023-06-04T03:55:15;9.05;;;3.80;;
73919;SDS011;62266;53.348;-1.496;2023-06-04T03:57:59;10.07;;;4.03;;
73919;SDS011;62266;53.348;-1.496;2023-06-04T04:00:43;8.43;;;3.72;;
73919;SDS011;62266;53.348;-1.496;2023-06-04T04:03:28;10.60;;;4.22;;
73919;SDS011;62266;53.348;-1.496;2023-06-04T04:06:15;8.40;;;3.83;;
73919;SDS011;62266;53.348;-1.496;2023-06-04T04:08:59;8.65;;;3.55;;
73919;SDS011;62266;53.348;-1.496;2023-06-04T04:11:44;7.87;;;3.80;;
73919;SDS011;62266;53.348;-1.496;2023-06-04T04:14:28;9.35;;;3.85;;
73919;SDS011;62266;53.348;-1.496;2023-06-04T04:17:16;8.30;;;3.80;;
73919;SDS011;62266;53.348;-1.496;2023-06-04T04:20:01;7.80;;;3.53;;
73919;SDS011;62266;53.348;-1.496;2023-06-04T04:22:48;11.25;;;3.63;;
73919;SDS011;62266;53.348;-1.496;2023-06-04T04:25:32;8.07;;;4.17;;
73919;SDS011;62266;53.348;-1.496;2023-06-04T04:28:16;9.98;;;4.00;;
73919;SDS011;62266;53.348;-1.496;2023-06-04T04:31:01;9.93;;;4.22;;
73919;SDS011;62266;53.348;-1.496;2023-06-04T04:33:46;10.45;;;4.38;;
73919;SDS011;62266;53.348;-1.496;2023-06-04T04:36:31;11.90;;;4.63;;
73919;SDS011;62266;53.348;-1.496;2023-06-04T04:39:16;10.00;;;4.03;;
73919;SDS011;62266;53.348;-1.496;2023-06-04T04:42:00;8.55;;;4.00;;
73919;SDS011;62266;53.348;-1.496;2023-06-04T04:44:44;7.07;;;4.28;;
73919;SDS011;62266;53.348;-1.496;2023-06-04T04:47:32;6.63;;;4.32;;
73919;SDS011;62266;53.348;-1.496;2023-06-04T04:50:17;11.13;;;4.25;;
73919;SDS011;62266;53.348;-1.496;2023-06-04T04:53:01;8.77;;;4.47;;
73919;SDS011;62266;53.348;-1.496;2023-06-04T04:55:46;13.50;;;4.05;;
73919;SDS011;62266;53.348;-1.496;2023-06-04T04:58:30;7.97;;;3.50;;
73919;SDS011;62266;53.348;-1.496;2023-06-04T05:01:15;4.80;;;3.17;;
73919;SDS011;62266;53.348;-1.496;2023-06-04T05:03:59;8.95;;;3.00;;
73919;SDS011;62266;53.348;-1.496;2023-06-04T05:06:43;6.40;;;3.90;;
73919;SDS011;62266;53.348;-1.496;2023-06-04T05:09:28;8.63;;;3.53;;
73919;SDS011;62266;53.348;-1.496;2023-06-04T05:12:12;5.47;;;3.20;;
73919;SDS011;62266;53.348;-1.496;2023-06-04T05:14:58;7.07;;;3.65;;
73919;SDS011;62266;53.348;-1.496;2023-06-04T05:17:49;7.47;;;3.20;;
73919;SDS011;62266;53.348;-1.496;2023-06-04T05:20:35;6.50;;;2.90;;
73919;SDS011;62266;53.348;-1.496;2023-06-04T05:23:21;7.05;;;2.50;;
73919;SDS011;62266;53.348;-1.496;2023-06-04T05:26:05;6.53;;;2.33;;
73919;SDS011;62266;53.348;-1.496;2023-06-04T05:28:49;4.55;;;2.55;;
73919;SDS011;62266;53.348;-1.496;2023-06-04T05:31:34;4.85;;;2.75;;
73919;SDS011;62266;53.348;-1.496;2023-06-04T05:34:18;6.27;;;2.53;;
73919;SDS011;62266;53.348;-1.496;2023-06-04T05:37:03;7.60;;;2.70;;
73919;SDS011;62266;53.348;-1.496;2023-06-04T05:40:01;5.75;;;2.10;;
73919;SDS011;62266;53.348;-1.496;2023-06-04T05:42:47;4.70;;;2.17;;
73919;SDS011;62266;53.348;-1.496;2023-06-04T05:45:32;3.65;;;2.40;;
73919;SDS011;62266;53.348;-1.496;2023-06-04T05:48:16;4.60;;;2.70;;
73919;SDS011;62266;53.348;-1.496;2023-06-04T05:51:00;5.20;;;2.40;;
73919;SDS011;62266;53.348;-1.496;2023-06-04T05:53:45;4.35;;;2.60;;
73919;SDS011;62266;53.348;-1.496;2023-06-04T05:56:29;6.22;;;2.88;;
73919;SDS011;62266;53.348;-1.496;2023-06-04T05:59:13;8.02;;;3.20;;
73919;SDS011;62266;53.348;-1.496;2023-06-04T06:01:58;7.40;;;2.77;;
73919;SDS011;62266;53.348;-1.496;2023-06-04T06:04:43;5.88;;;3.20;;
73919;SDS011;62266;53.348;-1.496;2023-06-04T06:07:27;5.63;;;2.83;;
73919;SDS011;62266;53.348;-1.496;2023-06-04T06:10:12;5.97;;;3.25;;
73919;SDS011;62266;53.348;-1.496;2023-06-04T06:12:57;6.88;;;3.03;;
73919;SDS011;62266;53.348;-1.496;2023-06-04T06:15:41;5.90;;;2.63;;
73919;SDS011;62266;53.348;-1.496;2023-06-04T06:18:28;4.18;;;2.45;;
73919;SDS011;62266;53.348;-1.496;2023-06-04T06:21:12;5.63;;;2.42;;
73919;SDS011;62266;53.348;-1.496;2023-06-04T06:23:56;4.20;;;2.20;;
73919;SDS011;62266;53.348;-1.496;2023-06-04T06:26:40;6.28;;;2.45;;
73919;SDS011;62266;53.348;-1.496;2023-06-04T06:29:25;6.47;;;2.77;;
73919;SDS011;62266;53.348;-1.496;2023-06-04T06:32:09;5.50;;;2.50;;
73919;SDS011;62266;53.348;-1.496;2023-06-04T06:34:54;5.57;;;2.40;;
73919;SDS011;62266;53.348;-1.496;2023-06-04T06:37:39;4.00;;;2.80;;
73919;SDS011;62266;53.348;-1.496;2023-06-04T06:40:25;4.15;;;2.22;;
73919;SDS011;62266;53.348;-1.496;2023-06-04T06:43:09;4.27;;;2.50;;
73919;SDS011;62266;53.348;-1.496;2023-06-04T06:45:56;4.03;;;2.50;;
73919;SDS011;62266;53.348;-1.496;2023-06-04T06:48:40;6.63;;;2.70;;
73919;SDS011;62266;53.348;-1.496;2023-06-04T06:51:29;5.07;;;2.80;;
73919;SDS011;62266;53.348;-1.496;2023-06-04T06:54:19;7.00;;;2.67;;
73919;SDS011;62266;53.348;-1.496;2023-06-04T06:57:08;5.47;;;2.60;;
73919;SDS011;62266;53.348;-1.496;2023-06-04T06:59:52;6.75;;;2.65;;
73919;SDS011;62266;53.348;-1.496;2023-06-04T07:02:38;5.05;;;2.70;;
73919;SDS011;62266;53.348;-1.496;2023-06-04T07:05:21;4.75;;;2.65;;
73919;SDS011;62266;53.348;-1.496;2023-06-04T07:08:05;8.30;;;3.33;;
73919;SDS011;62266;53.348;-1.496;2023-06-04T07:10:50;5.33;;;2.60;;
73919;SDS011;62266;53.348;-1.496;2023-06-04T07:13:34;4.50;;;2.85;;
73919;SDS011;62266;53.348;-1.496;2023-06-04T07:16:19;6.60;;;2.95;;
73919;SDS011;62266;53.348;-1.496;2023-06-04T07:19:14;5.60;;;2.95;;
73919;SDS011;62266;53.348;-1.496;2023-06-04T07:21:58;5.93;;;2.95;;
73919;SDS011;62266;53.348;-1.496;2023-06-04T07:24:42;4.90;;;3.10;;
73919;SDS011;62266;53.348;-1.496;2023-06-04T07:27:27;4.55;;;3.08;;
73919;SDS011;62266;53.348;-1.496;2023-06-04T07:30:11;6.03;;;3.25;;
73919;SDS011;62266;53.348;-1.496;2023-06-04T07:32:56;6.50;;;3.50;;
73919;SDS011;62266;53.348;-1.496;2023-06-04T07:35:40;5.82;;;3.70;;
73919;SDS011;62266;53.348;-1.496;2023-06-04T07:38:24;5.90;;;2.83;;
73919;SDS011;62266;53.348;-1.496;2023-06-04T07:41:08;4.25;;;2.40;;
73919;SDS011;62266;53.348;-1.496;2023-06-04T07:43:53;5.93;;;3.60;;
73919;SDS011;62266;53.348;-1.496;2023-06-04T07:46:40;6.75;;;3.00;;
73919;SDS011;62266;53.348;-1.496;2023-06-04T07:49:25;6.05;;;3.53;;
73919;SDS011;62266;53.348;-1.496;2023-06-04T07:52:09;7.37;;;3.20;;
73919;SDS011;62266;53.348;-1.496;2023-06-04T07:54:54;8.07;;;3.90;;
73919;SDS011;62266;53.348;-1.496;2023-06-04T07:57:44;4.15;;;3.38;;
73919;SDS011;62266;53.348;-1.496;2023-06-04T08:00:29;8.75;;;3.05;;
73919;SDS011;62266;53.348;-1.496;2023-06-04T08:03:13;5.57;;;3.03;;
73919;SDS011;62266;53.348;-1.496;2023-06-04T08:06:03;3.90;;;2.80;;
73919;SDS011;62266;53.348;-1.496;2023-06-04T08:08:47;6.18;;;2.95;;
73919;SDS011;62266;53.348;-1.496;2023-06-04T08:11:34;7.55;;;3.30;;
73919;SDS011;62266;53.348;-1.496;2023-06-04T08:14:24;4.85;;;2.90;;
73919;SDS011;62266;53.348;-1.496;2023-06-04T08:17:10;4.28;;;2.70;;
73919;SDS011;62266;53.348;-1.496;2023-06-04T08:19:55;5.73;;;2.30;;
73919;SDS011;62266;53.348;-1.496;2023-06-04T08:22:42;5.68;;;2.40;;
73919;SDS011;62266;53.348;-1.496;2023-06-04T08:25:26;4.00;;;2.60;;
73919;SDS011;62266;53.348;-1.496;2023-06-04T08:28:10;4.35;;;2.50;;
73919;SDS011;62266;53.348;-1.496;2023-06-04T08:30:57;5.78;;;3.08;;
73919;SDS011;62266;53.348;-1.496;2023-06-04T08:33:41;4.40;;;2.87;;
73919;SDS011;62266;53.348;-1.496;2023-06-04T08:36:27;5.20;;;3.10;;
73919;SDS011;62266;53.348;-1.496;2023-06-04T08:39:12;5.03;;;2.70;;
73919;SDS011;62266;53.348;-1.496;2023-06-04T08:41:59;6.90;;;2.88;;
73919;SDS011;62266;53.348;-1.496;2023-06-04T08:44:46;5.70;;;3.13;;
73919;SDS011;62266;53.348;-1.496;2023-06-04T08:47:34;6.17;;;3.40;;
73919;SDS011;62266;53.348;-1.496;2023-06-04T08:50:20;3.75;;;2.35;;
73919;SDS011;62266;53.348;-1.496;2023-06-04T08:53:06;5.28;;;2.97;;
73919;SDS011;62266;53.348;-1.496;2023-06-04T08:55:50;5.22;;;2.85;;
73919;SDS011;62266;53.348;-1.496;2023-06-04T08:58:37;5.93;;;3.17;;
73919;SDS011;62266;53.348;-1.496;2023-06-04T09:01:23;8.20;;;3.20;;
73919;SDS011;62266;53.348;-1.496;2023-06-04T09:04:07;6.15;;;2.95;;
73919;SDS011;62266;53.348;-1.496;2023-06-04T09:06:52;4.20;;;2.80;;
73919;SDS011;62266;53.348;-1.496;2023-06-04T09:09:38;4.72;;;2.70;;
73919;SDS011;62266;53.348;-1.496;2023-06-04T09:12:23;6.75;;;2.53;;
73919;SDS011;62266;53.348;-1.496;2023-06-04T09:15:11;6.00;;;2.53;;
73919;SDS011;62266;53.348;-1.496;2023-06-04T09:17:56;4.40;;;2.58;;
73919;SDS011;62266;53.348;-1.496;2023-06-04T09:20:40;3.85;;;2.65;;
73919;SDS011;62266;53.348;-1.496;2023-06-04T09:23:24;6.22;;;2.88;;
73919;SDS011;62266;53.348;-1.496;2023-06-04T09:26:11;5.40;;;2.83;;
73919;SDS011;62266;53.348;-1.496;2023-06-04T09:28:55;6.60;;;3.20;;
73919;SDS011;62266;53.348;-1.496;2023-06-04T09:31:45;4.32;;;2.70;;
73919;SDS011;62266;53.348;-1.496;2023-06-04T09:34:31;4.28;;;2.60;;
73919;SDS011;62266;53.348;-1.496;2023-06-04T09:37:15;6.22;;;2.58;;
73919;SDS011;62266;53.348;-1.496;2023-06-04T09:40:00;7.70;;;3.20;;
73919;SDS011;62266;53.348;-1.496;2023-06-04T09:42:48;4.07;;;2.60;;
73919;SDS011;62266;53.348;-1.496;2023-06-04T09:45:38;3.85;;;2.83;;
73919;SDS011;62266;53.348;-1.496;2023-06-04T09:48:22;5.20;;;3.45;;
73919;SDS011;62266;53.348;-1.496;2023-06-04T09:51:14;4.40;;;2.90;;
73919;SDS011;62266;53.348;-1.496;2023-06-04T09:54:03;4.38;;;2.75;;
73919;SDS011;62266;53.348;-1.496;2023-06-04T09:56:48;6.27;;;3.17;;
73919;SDS011;62266;53.348;-1.496;2023-06-04T09:59:33;5.45;;;2.95;;
73919;SDS011;62266;53.348;-1.496;2023-06-04T10:02:26;4.55;;;3.30;;
73919;SDS011;62266;53.348;-1.496;2023-06-04T10:05:19;6.28;;;3.17;;
73919;SDS011;62266;53.348;-1.496;2023-06-04T10:08:05;7.60;;;3.40;;
73919;SDS011;62266;53.348;-1.496;2023-06-04T10:10:56;6.83;;;3.43;;
73919;SDS011;62266;53.348;-1.496;2023-06-04T10:13:53;5.00;;;2.97;;
73919;SDS011;62266;53.348;-1.496;2023-06-04T10:16:44;4.05;;;2.70;;
73919;SDS011;62266;53.348;-1.496;2023-06-04T10:19:29;3.63;;;2.88;;
73919;SDS011;62266;53.348;-1.496;2023-06-04T10:22:14;5.47;;;3.20;;
73919;SDS011;62266;53.348;-1.496;2023-06-04T10:24:58;3.53;;;2.80;;
73919;SDS011;62266;53.348;-1.496;2023-06-04T10:27:48;4.65;;;2.78;;
73919;SDS011;62266;53.348;-1.496;2023-06-04T10:30:35;7.95;;;3.17;;
73919;SDS011;62266;53.348;-1.496;2023-06-04T10:33:22;5.55;;;3.03;;
73919;SDS011;62266;53.348;-1.496;2023-06-04T10:36:17;5.35;;;2.83;;
73919;SDS011;62266;53.348;-1.496;2023-06-04T10:39:09;4.67;;;2.87;;
73919;SDS011;62266;53.348;-1.496;2023-06-04T10:42:03;7.93;;;2.97;;
73919;SDS011;62266;53.348;-1.496;2023-06-04T10:44:52;7.03;;;3.30;;
73919;SDS011;62266;53.348;-1.496;2023-06-04T10:48:06;5.53;;;3.15;;
73919;SDS011;62266;53.348;-1.496;2023-06-04T10:50:59;5.65;;;3.55;;
73919;SDS011;62266;53.348;-1.496;2023-06-04T10:54:10;7.10;;;3.43;;
73919;SDS011;62266;53.348;-1.496;2023-06-04T10:56:54;5.25;;;3.42;;
73919;SDS011;62266;53.348;-1.496;2023-06-04T10:59:38;6.15;;;3.35;;
73919;SDS011;62266;53.348;-1.496;2023-06-04T11:02:34;6.13;;;3.17;;
73919;SDS011;62266;53.348;-1.496;2023-06-04T11:05:19;5.03;;;3.40;;
73919;SDS011;62266;53.348;-1.496;2023-06-04T11:08:27;5.57;;;3.43;;
73919;SDS011;62266;53.348;-1.496;2023-06-04T11:11:14;5.93;;;3.22;;
73919;SDS011;62266;53.348;-1.496;2023-06-04T11:14:14;4.78;;;3.05;;
73919;SDS011;62266;53.348;-1.496;2023-06-04T11:17:11;6.25;;;3.30;;
73919;SDS011;62266;53.348;-1.496;2023-06-04T11:19:56;5.68;;;3.00;;
73919;SDS011;62266;53.348;-1.496;2023-06-04T11:22:40;6.17;;;3.53;;
73919;SDS011;62266;53.348;-1.496;2023-06-04T11:25:24;5.35;;;3.05;;
73919;SDS011;62266;53.348;-1.496;2023-06-04T11:28:14;6.68;;;3.60;;
73919;SDS011;62266;53.348;-1.496;2023-06-04T11:31:08;8.27;;;3.83;;
73919;SDS011;62266;53.348;-1.496;2023-06-04T11:33:53;7.68;;;4.00;;
73919;SDS011;62266;53.348;-1.496;2023-06-04T11:36:38;4.60;;;3.20;;
73919;SDS011;62266;53.348;-1.496;2023-06-04T11:39:34;6.10;;;3.60;;
73919;SDS011;62266;53.348;-1.496;2023-06-04T11:42:27;6.03;;;3.15;;
73919;SDS011;62266;53.348;-1.496;2023-06-04T11:45:22;6.68;;;3.78;;
73919;SDS011;62266;53.348;-1.496;2023-06-04T11:50:55;7.17;;;4.10;;
73919;SDS011;62266;53.348;-1.496;2023-06-04T11:53:41;6.35;;;3.67;;
73919;SDS011;62266;53.348;-1.496;2023-06-04T11:56:29;4.85;;;3.30;;
73919;SDS011;62266;53.348;-1.496;2023-06-04T12:04:42;26.13;;;8.23;;
73919;SDS011;62266;53.348;-1.496;2023-06-04T12:07:33;6.10;;;3.33;;
73919;SDS011;62266;53.348;-1.496;2023-06-04T12:10:21;4.60;;;3.28;;
73919;SDS011;62266;53.348;-1.496;2023-06-04T12:13:11;8.38;;;4.00;;
73919;SDS011;62266;53.348;-1.496;2023-06-04T12:15:56;6.07;;;4.40;;
73919;SDS011;62266;53.348;-1.496;2023-06-04T12:18:43;5.73;;;3.93;;
73919;SDS011;62266;53.348;-1.496;2023-06-04T12:21:28;6.85;;;3.88;;
73919;SDS011;62266;53.348;-1.496;2023-06-04T12:24:13;5.10;;;3.40;;
73919;SDS011;62266;53.348;-1.496;2023-06-04T12:27:12;4.93;;;3.15;;
73919;SDS011;62266;53.348;-1.496;2023-06-04T12:30:01;6.75;;;3.33;;
73919;SDS011;62266;53.348;-1.496;2023-06-04T12:57:40;5.65;;;3.65;;
73919;SDS011;62266;53.348;-1.496;2023-06-04T13:00:24;5.13;;;3.10;;
73919;SDS011;62266;53.348;-1.496;2023-06-04T13:03:12;5.73;;;2.87;;
73919;SDS011;62266;53.348;-1.496;2023-06-04T13:05:56;5.60;;;2.97;;
73919;SDS011;62266;53.348;-1.496;2023-06-04T13:08:40;6.50;;;3.20;;
73919;SDS011;62266;53.348;-1.496;2023-06-04T13:11:27;4.65;;;2.90;;
73919;SDS011;62266;53.348;-1.496;2023-06-04T13:14:11;3.95;;;2.88;;
73919;SDS011;62266;53.348;-1.496;2023-06-04T13:16:55;3.70;;;2.80;;
73919;SDS011;62266;53.348;-1.496;2023-06-04T13:19:40;4.88;;;3.00;;
73919;SDS011;62266;53.348;-1.496;2023-06-04T13:22:24;4.63;;;3.00;;
73919;SDS011;62266;53.348;-1.496;2023-06-04T13:25:09;7.97;;;3.05;;
73919;SDS011;62266;53.348;-1.496;2023-06-04T13:27:59;3.63;;;2.85;;
73919;SDS011;62266;53.348;-1.496;2023-06-04T13:30:52;3.43;;;2.30;;
73919;SDS011;62266;53.348;-1.496;2023-06-04T13:33:39;5.93;;;2.70;;
73919;SDS011;62266;53.348;-1.496;2023-06-04T13:36:28;6.07;;;2.88;;
73919;SDS011;62266;53.348;-1.496;2023-06-04T13:39:16;6.18;;;3.20;;
73919;SDS011;62266;53.348;-1.496;2023-06-04T13:42:00;5.60;;;2.83;;
73919;SDS011;62266;53.348;-1.496;2023-06-04T13:44:57;5.13;;;2.73;;
73919;SDS011;62266;53.348;-1.496;2023-06-04T13:50:39;3.75;;;2.50;;
73919;SDS011;62266;53.348;-1.496;2023-06-04T13:53:25;4.57;;;2.63;;
73919;SDS011;62266;53.348;-1.496;2023-06-04T13:56:10;4.68;;;2.47;;
73919;SDS011;62266;53.348;-1.496;2023-06-04T13:58:56;4.10;;;2.50;;
73919;SDS011;62266;53.348;-1.496;2023-06-04T14:01:40;5.95;;;2.60;;
73919;SDS011;62266;53.348;-1.496;2023-06-04T14:04:25;5.40;;;2.78;;
73919;SDS011;62266;53.348;-1.496;2023-06-04T14:07:09;4.18;;;2.55;;
73919;SDS011;62266;53.348;-1.496;2023-06-04T14:09:55;4.70;;;2.78;;
73919;SDS011;62266;53.348;-1.496;2023-06-04T14:12:53;4.27;;;2.47;;
73919;SDS011;62266;53.348;-1.496;2023-06-04T14:15:39;5.07;;;2.60;;
73919;SDS011;62266;53.348;-1.496;2023-06-04T14:18:23;3.33;;;2.67;;
73919;SDS011;62266;53.348;-1.496;2023-06-04T14:21:13;5.13;;;2.65;;
73919;SDS011;62266;53.348;-1.496;2023-06-04T14:24:01;4.40;;;2.75;;
73919;SDS011;62266;53.348;-1.496;2023-06-04T14:27:00;5.47;;;2.67;;
73919;SDS011;62266;53.348;-1.496;2023-06-04T14:29:45;4.78;;;2.80;;
73919;SDS011;62266;53.348;-1.496;2023-06-04T14:32:32;5.00;;;2.30;;
73919;SDS011;62266;53.348;-1.496;2023-06-04T14:38:37;4.45;;;2.67;;
73919;SDS011;62266;53.348;-1.496;2023-06-04T14:41:21;5.50;;;2.77;;
73919;SDS011;62266;53.348;-1.496;2023-06-04T14:44:11;4.40;;;2.40;;
73919;SDS011;62266;53.348;-1.496;2023-06-04T14:52:23;3.60;;;2.30;;
73919;SDS011;62266;53.348;-1.496;2023-06-04T14:55:08;6.97;;;2.53;;
73919;SDS011;62266;53.348;-1.496;2023-06-04T14:57:55;4.30;;;2.50;;
73919;SDS011;62266;53.348;-1.496;2023-06-04T15:00:39;3.13;;;2.38;;
73919;SDS011;62266;53.348;-1.496;2023-06-04T15:03:23;3.70;;;2.15;;
73919;SDS011;62266;53.348;-1.496;2023-06-04T15:06:11;4.03;;;2.58;;
73919;SDS011;62266;53.348;-1.496;2023-06-04T15:08:59;3.77;;;2.40;;
73919;SDS011;62266;53.348;-1.496;2023-06-04T15:11:50;3.80;;;2.20;;
73919;SDS011;62266;53.348;-1.496;2023-06-04T15:14:37;4.15;;;2.58;;
73919;SDS011;62266;53.348;-1.496;2023-06-04T15:17:18;5.35;;;2.75;;
73919;SDS011;62266;53.348;-1.496;2023-06-04T15:20:02;6.60;;;2.40;;
73919;SDS011;62266;53.348;-1.496;2023-06-04T15:22:51;6.47;;;2.23;;
73919;SDS011;62266;53.348;-1.496;2023-06-04T15:25:40;5.38;;;2.15;;
73919;SDS011;62266;53.348;-1.496;2023-06-04T15:28:34;4.35;;;2.13;;
73919;SDS011;62266;53.348;-1.496;2023-06-04T15:31:18;3.58;;;2.08;;
73919;SDS011;62266;53.348;-1.496;2023-06-04T15:34:03;3.75;;;2.30;;
73919;SDS011;62266;53.348;-1.496;2023-06-04T15:36:46;3.77;;;2.20;;
73919;SDS011;62266;53.348;-1.496;2023-06-04T15:39:32;7.00;;;2.50;;
73919;SDS011;62266;53.348;-1.496;2023-06-04T15:42:16;6.00;;;2.70;;
73919;SDS011;62266;53.348;-1.496;2023-06-04T15:48:28;3.72;;;2.03;;
73919;SDS011;62266;53.348;-1.496;2023-06-04T15:51:11;3.10;;;2.30;;
73919;SDS011;62266;53.348;-1.496;2023-06-04T15:59:34;5.25;;;2.30;;
73919;SDS011;62266;53.348;-1.496;2023-06-04T16:02:22;5.55;;;2.30;;
73919;SDS011;62266;53.348;-1.496;2023-06-04T16:05:20;4.20;;;2.00;;
73919;SDS011;62266;53.348;-1.496;2023-06-04T16:16:19;3.53;;;2.17;;
73919;SDS011;62266;53.348;-1.496;2023-06-04T16:19:05;3.70;;;1.87;;
73919;SDS011;62266;53.348;-1.496;2023-06-04T16:24:37;4.60;;;1.92;;
73919;SDS011;62266;53.348;-1.496;2023-06-04T16:33:14;3.17;;;1.87;;
73919;SDS011;62266;53.348;-1.496;2023-06-04T16:36:05;4.68;;;2.17;;
73919;SDS011;62266;53.348;-1.496;2023-06-04T16:38:51;4.82;;;2.10;;
73919;SDS011;62266;53.348;-1.496;2023-06-04T16:41:35;4.32;;;2.00;;
73919;SDS011;62266;53.348;-1.496;2023-06-04T16:44:22;4.28;;;2.10;;
73919;SDS011;62266;53.348;-1.496;2023-06-04T16:47:12;4.07;;;2.13;;
73919;SDS011;62266;53.348;-1.496;2023-06-04T16:49:56;4.18;;;2.00;;
73919;SDS011;62266;53.348;-1.496;2023-06-04T16:52:40;2.63;;;2.05;;
73919;SDS011;62266;53.348;-1.496;2023-06-04T16:55:30;3.53;;;2.10;;
73919;SDS011;62266;53.348;-1.496;2023-06-04T16:58:40;4.55;;;2.20;;
73919;SDS011;62266;53.348;-1.496;2023-06-04T17:01:24;3.60;;;2.67;;
73919;SDS011;62266;53.348;-1.496;2023-06-04T17:04:10;4.82;;;2.42;;
73919;SDS011;62266;53.348;-1.496;2023-06-04T17:06:57;4.88;;;2.50;;
73919;SDS011;62266;53.348;-1.496;2023-06-04T17:09:50;4.72;;;2.50;;
73919;SDS011;62266;53.348;-1.496;2023-06-04T17:12:34;4.63;;;2.25;;
73919;SDS011;62266;53.348;-1.496;2023-06-04T17:15:20;5.30;;;2.57;;
73919;SDS011;62266;53.348;-1.496;2023-06-04T17:20:39;4.32;;;2.50;;
73919;SDS011;62266;53.348;-1.496;2023-06-04T17:23:25;5.25;;;2.63;;
73919;SDS011;62266;53.348;-1.496;2023-06-04T17:26:15;5.80;;;2.58;;
73919;SDS011;62266;53.348;-1.496;2023-06-04T17:29:00;6.40;;;2.50;;
73919;SDS011;62266;53.348;-1.496;2023-06-04T17:31:44;4.13;;;2.70;;
73919;SDS011;62266;53.348;-1.496;2023-06-04T17:34:28;5.32;;;2.65;;
73919;SDS011;62266;53.348;-1.496;2023-06-04T17:37:13;4.90;;;2.70;;
73919;SDS011;62266;53.348;-1.496;2023-06-04T17:39:57;5.00;;;2.47;;
73919;SDS011;62266;53.348;-1.496;2023-06-04T17:42:42;6.07;;;2.60;;